sensor_id;sensor_type;location;lat;lon;timestamp;P1;durP1;ratioP1;P2;durP2;ratioP2
4422;SDS011;2224;49.814;8.650;2024-03-06T00:01:29;10.13;;;8.73;;
4422;SDS011;2224;49.814;8.650;2024-03-06T00:03:54;14.40;;;7.67;;
4422;SDS011;2224;49.814;8.650;2024-03-06T00:06:20;8.80;;;7.90;;
4422;SDS011;2224;49.814;8.650;2024-03-06T00:08:45;10.00;;;8.07;;
4422;SDS011;2224;49.814;8.650;2024-03-06T00:11:10;9.43;;;8.00;;
4422;SDS011;2224;49.814;8.650;2024-03-06T00:13:35;10.00;;;7.67;;
4422;SDS011;2224;49.814;8.650;2024-03-06T00:16:01;10.47;;;7.80;;
4422;SDS011;2224;49.814;8.650;2024-03-06T00:18:26;9.23;;;8.30;;
4422;SDS011;2224;49.814;8.650;2024-03-06T00:20:51;9.73;;;7.97;;
4422;SDS011;2224;49.814;8.650;2024-03-06T00:23:17;10.17;;;8.57;;
4422;SDS011;2224;49.814;8.650;2024-03-06T00:25:42;9.30;;;7.23;;
4422;SDS011;2224;49.814;8.650;2024-03-06T00:28:07;11.03;;;8.03;;
4422;SDS011;2224;49.814;8.650;2024-03-06T00:30:33;12.23;;;8.53;;
4422;SDS011;2224;49.814;8.650;2024-03-06T00:32:58;15.53;;;9.30;;
4422;SDS011;2224;49.814;8.650;2024-03-06T00:35:24;10.87;;;8.43;;
4422;SDS011;2224;49.814;8.650;2024-03-06T00:37:49;11.80;;;9.17;;
4422;SDS011;2224;49.814;8.650;2024-03-06T00:40:14;9.90;;;7.93;;
4422;SDS011;2224;49.814;8.650;2024-03-06T00:42:39;13.17;;;9.77;;
4422;SDS011;2224;49.814;8.650;2024-03-06T00:45:06;19.73;;;10.23;;
4422;SDS011;2224;49.814;8.650;2024-03-06T00:47:31;15.50;;;8.80;;
4422;SDS011;2224;49.814;8.650;2024-03-06T00:49:59;12.20;;;9.37;;
4422;SDS011;2224;49.814;8.650;2024-03-06T00:52:24;10.70;;;9.30;;
4422;SDS011;2224;49.814;8.650;2024-03-06T00:54:50;10.17;;;8.27;;
4422;SDS011;2224;49.814;8.650;2024-03-06T00:57:15;15.30;;;9.93;;
4422;SDS011;2224;49.814;8.650;2024-03-06T00:59:40;12.00;;;9.73;;
4422;SDS011;2224;49.814;8.650;2024-03-06T01:02:06;11.17;;;9.30;;
4422;SDS011;2224;49.814;8.650;2024-03-06T01:04:31;13.33;;;9.37;;
4422;SDS011;2224;49.814;8.650;2024-03-06T01:06:56;15.60;;;10.77;;
4422;SDS011;2224;49.814;8.650;2024-03-06T01:09:23;13.43;;;9.43;;
4422;SDS011;2224;49.814;8.650;2024-03-06T01:11:48;9.87;;;8.43;;
4422;SDS011;2224;49.814;8.650;2024-03-06T01:14:14;12.80;;;9.00;;
4422;SDS011;2224;49.814;8.650;2024-03-06T01:16:39;10.37;;;8.23;;
4422;SDS011;2224;49.814;8.650;2024-03-06T01:19:05;14.93;;;9.53;;
4422;SDS011;2224;49.814;8.650;2024-03-06T01:21:30;10.50;;;8.33;;
4422;SDS011;2224;49.814;8.650;2024-03-06T01:23:55;13.07;;;9.03;;
4422;SDS011;2224;49.814;8.650;2024-03-06T01:26:21;12.83;;;8.40;;
4422;SDS011;2224;49.814;8.650;2024-03-06T01:28:46;11.03;;;9.90;;
4422;SDS011;2224;49.814;8.650;2024-03-06T01:31:11;15.00;;;8.90;;
4422;SDS011;2224;49.814;8.650;2024-03-06T01:33:37;11.73;;;9.03;;
4422;SDS011;2224;49.814;8.650;2024-03-06T01:36:02;10.23;;;8.00;;
4422;SDS011;2224;49.814;8.650;2024-03-06T01:38:28;14.77;;;9.10;;
4422;SDS011;2224;49.814;8.650;2024-03-06T01:40:53;11.97;;;8.87;;
4422;SDS011;2224;49.814;8.650;2024-03-06T01:43:22;11.60;;;8.83;;
4422;SDS011;2224;49.814;8.650;2024-03-06T01:45:48;13.30;;;8.73;;
4422;SDS011;2224;49.814;8.650;2024-03-06T01:48:15;10.70;;;8.90;;
4422;SDS011;2224;49.814;8.650;2024-03-06T01:50:41;11.93;;;8.43;;
4422;SDS011;2224;49.814;8.650;2024-03-06T01:53:07;10.10;;;9.00;;
4422;SDS011;2224;49.814;8.650;2024-03-06T01:55:33;10.63;;;8.10;;
4422;SDS011;2224;49.814;8.650;2024-03-06T01:57:58;19.57;;;8.90;;
4422;SDS011;2224;49.814;8.650;2024-03-06T02:00:23;14.50;;;9.43;;
4422;SDS011;2224;49.814;8.650;2024-03-06T02:02:49;9.73;;;8.10;;
4422;SDS011;2224;49.814;8.650;2024-03-06T02:05:14;14.10;;;8.60;;
4422;SDS011;2224;49.814;8.650;2024-03-06T02:07:40;9.97;;;8.93;;
4422;SDS011;2224;49.814;8.650;2024-03-06T02:10:08;11.00;;;8.63;;
4422;SDS011;2224;49.814;8.650;2024-03-06T02:12:35;11.33;;;9.00;;
4422;SDS011;2224;49.814;8.650;2024-03-06T02:15:01;9.93;;;8.30;;
4422;SDS011;2224;49.814;8.650;2024-03-06T02:17:28;11.13;;;8.53;;
4422;SDS011;2224;49.814;8.650;2024-03-06T02:19:54;10.87;;;9.60;;
4422;SDS011;2224;49.814;8.650;2024-03-06T02:22:20;11.00;;;8.57;;
4422;SDS011;2224;49.814;8.650;2024-03-06T02:24:47;13.10;;;9.43;;
4422;SDS011;2224;49.814;8.650;2024-03-06T02:27:13;10.63;;;9.00;;
4422;SDS011;2224;49.814;8.650;2024-03-06T02:29:38;11.63;;;8.77;;
4422;SDS011;2224;49.814;8.650;2024-03-06T02:32:04;12.07;;;9.13;;
4422;SDS011;2224;49.814;8.650;2024-03-06T02:34:29;12.20;;;9.10;;
4422;SDS011;2224;49.814;8.650;2024-03-06T02:36:55;13.50;;;9.53;;
4422;SDS011;2224;49.814;8.650;2024-03-06T02:39:21;13.20;;;9.70;;
4422;SDS011;2224;49.814;8.650;2024-03-06T02:41:46;12.83;;;9.57;;
4422;SDS011;2224;49.814;8.650;2024-03-06T02:44:12;13.70;;;10.10;;
4422;SDS011;2224;49.814;8.650;2024-03-06T02:46:38;14.30;;;10.93;;
4422;SDS011;2224;49.814;8.650;2024-03-06T02:49:03;13.77;;;10.33;;
4422;SDS011;2224;49.814;8.650;2024-03-06T02:51:30;12.87;;;10.30;;
4422;SDS011;2224;49.814;8.650;2024-03-06T02:53:56;12.80;;;9.37;;
4422;SDS011;2224;49.814;8.650;2024-03-06T02:56:21;14.10;;;10.57;;
4422;SDS011;2224;49.814;8.650;2024-03-06T02:58:46;13.70;;;10.50;;
4422;SDS011;2224;49.814;8.650;2024-03-06T03:01:13;14.83;;;9.37;;
4422;SDS011;2224;49.814;8.650;2024-03-06T03:03:41;12.10;;;10.13;;
4422;SDS011;2224;49.814;8.650;2024-03-06T03:06:07;12.70;;;9.97;;
4422;SDS011;2224;49.814;8.650;2024-03-06T03:08:32;13.20;;;10.30;;
4422;SDS011;2224;49.814;8.650;2024-03-06T03:10:58;11.20;;;9.60;;
4422;SDS011;2224;49.814;8.650;2024-03-06T03:13:23;13.07;;;10.00;;
4422;SDS011;2224;49.814;8.650;2024-03-06T03:15:49;12.17;;;9.13;;
4422;SDS011;2224;49.814;8.650;2024-03-06T03:18:14;14.13;;;9.63;;
4422;SDS011;2224;49.814;8.650;2024-03-06T03:20:39;11.83;;;10.50;;
4422;SDS011;2224;49.814;8.650;2024-03-06T03:23:05;12.90;;;9.93;;
4422;SDS011;2224;49.814;8.650;2024-03-06T03:25:36;13.63;;;10.80;;
4422;SDS011;2224;49.814;8.650;2024-03-06T03:28:01;13.63;;;9.80;;
4422;SDS011;2224;49.814;8.650;2024-03-06T03:30:27;11.13;;;8.60;;
4422;SDS011;2224;49.814;8.650;2024-03-06T03:32:52;12.77;;;9.70;;
4422;SDS011;2224;49.814;8.650;2024-03-06T03:35:17;10.50;;;8.63;;
4422;SDS011;2224;49.814;8.650;2024-03-06T03:37:45;13.17;;;10.60;;
4422;SDS011;2224;49.814;8.650;2024-03-06T03:40:11;18.27;;;12.47;;
4422;SDS011;2224;49.814;8.650;2024-03-06T03:42:37;12.80;;;11.40;;
4422;SDS011;2224;49.814;8.650;2024-03-06T03:45:05;13.50;;;11.17;;
4422;SDS011;2224;49.814;8.650;2024-03-06T03:47:31;13.07;;;10.60;;
4422;SDS011;2224;49.814;8.650;2024-03-06T03:49:57;15.70;;;10.57;;
4422;SDS011;2224;49.814;8.650;2024-03-06T03:52:22;15.13;;;11.63;;
4422;SDS011;2224;49.814;8.650;2024-03-06T03:54:47;15.57;;;11.40;;
4422;SDS011;2224;49.814;8.650;2024-03-06T03:57:13;14.37;;;11.20;;
4422;SDS011;2224;49.814;8.650;2024-03-06T03:59:39;13.10;;;11.50;;
4422;SDS011;2224;49.814;8.650;2024-03-06T04:02:06;14.10;;;10.80;;
4422;SDS011;2224;49.814;8.650;2024-03-06T04:04:31;18.50;;;10.60;;
4422;SDS011;2224;49.814;8.650;2024-03-06T04:06:56;13.10;;;11.23;;
4422;SDS011;2224;49.814;8.650;2024-03-06T04:09:24;16.23;;;10.00;;
4422;SDS011;2224;49.814;8.650;2024-03-06T04:11:49;16.83;;;10.20;;
4422;SDS011;2224;49.814;8.650;2024-03-06T04:14:15;12.17;;;10.03;;
4422;SDS011;2224;49.814;8.650;2024-03-06T04:16:40;12.20;;;9.13;;
4422;SDS011;2224;49.814;8.650;2024-03-06T04:19:05;12.10;;;10.00;;
4422;SDS011;2224;49.814;8.650;2024-03-06T04:21:31;14.77;;;10.63;;
4422;SDS011;2224;49.814;8.650;2024-03-06T04:23:56;14.20;;;9.43;;
4422;SDS011;2224;49.814;8.650;2024-03-06T04:26:22;11.47;;;10.10;;
4422;SDS011;2224;49.814;8.650;2024-03-06T04:28:47;13.70;;;10.47;;
4422;SDS011;2224;49.814;8.650;2024-03-06T04:31:13;14.53;;;9.77;;
4422;SDS011;2224;49.814;8.650;2024-03-06T04:33:38;16.43;;;9.83;;
4422;SDS011;2224;49.814;8.650;2024-03-06T04:36:06;12.43;;;9.13;;
4422;SDS011;2224;49.814;8.650;2024-03-06T04:38:32;17.60;;;9.60;;
4422;SDS011;2224;49.814;8.650;2024-03-06T04:40:57;12.03;;;9.90;;
4422;SDS011;2224;49.814;8.650;2024-03-06T04:43:23;11.90;;;10.40;;
4422;SDS011;2224;49.814;8.650;2024-03-06T04:45:48;11.33;;;9.00;;
4422;SDS011;2224;49.814;8.650;2024-03-06T04:48:14;11.93;;;10.00;;
4422;SDS011;2224;49.814;8.650;2024-03-06T04:50:39;9.70;;;8.20;;
4422;SDS011;2224;49.814;8.650;2024-03-06T04:53:04;11.40;;;7.93;;
4422;SDS011;2224;49.814;8.650;2024-03-06T04:55:30;12.53;;;9.07;;
4422;SDS011;2224;49.814;8.650;2024-03-06T04:57:55;11.10;;;9.57;;
4422;SDS011;2224;49.814;8.650;2024-03-06T05:00:21;10.37;;;8.97;;
4422;SDS011;2224;49.814;8.650;2024-03-06T05:02:46;12.90;;;9.47;;
4422;SDS011;2224;49.814;8.650;2024-03-06T05:05:14;11.50;;;9.27;;
4422;SDS011;2224;49.814;8.650;2024-03-06T05:07:39;13.60;;;9.87;;
4422;SDS011;2224;49.814;8.650;2024-03-06T05:10:05;10.67;;;8.03;;
4422;SDS011;2224;49.814;8.650;2024-03-06T05:12:32;14.33;;;9.07;;
4422;SDS011;2224;49.814;8.650;2024-03-06T05:14:59;12.70;;;7.77;;
4422;SDS011;2224;49.814;8.650;2024-03-06T05:17:25;10.00;;;8.20;;
4422;SDS011;2224;49.814;8.650;2024-03-06T05:19:50;10.77;;;8.97;;
4422;SDS011;2224;49.814;8.650;2024-03-06T05:22:15;15.20;;;9.00;;
4422;SDS011;2224;49.814;8.650;2024-03-06T05:24:44;10.40;;;8.90;;
4422;SDS011;2224;49.814;8.650;2024-03-06T05:27:10;11.30;;;7.80;;
4422;SDS011;2224;49.814;8.650;2024-03-06T05:29:38;12.13;;;9.07;;
4422;SDS011;2224;49.814;8.650;2024-03-06T05:32:03;10.90;;;8.47;;
4422;SDS011;2224;49.814;8.650;2024-03-06T05:34:29;9.80;;;8.80;;
4422;SDS011;2224;49.814;8.650;2024-03-06T05:36:55;11.63;;;9.07;;
4422;SDS011;2224;49.814;8.650;2024-03-06T05:39:20;14.73;;;9.40;;
4422;SDS011;2224;49.814;8.650;2024-03-06T05:41:45;12.30;;;9.00;;
4422;SDS011;2224;49.814;8.650;2024-03-06T05:44:11;11.90;;;9.00;;
4422;SDS011;2224;49.814;8.650;2024-03-06T05:46:37;12.63;;;8.53;;
4422;SDS011;2224;49.814;8.650;2024-03-06T05:49:02;14.63;;;9.00;;
4422;SDS011;2224;49.814;8.650;2024-03-06T05:51:28;11.97;;;9.97;;
4422;SDS011;2224;49.814;8.650;2024-03-06T05:53:54;13.73;;;9.90;;
4422;SDS011;2224;49.814;8.650;2024-03-06T05:56:19;10.23;;;8.60;;
4422;SDS011;2224;49.814;8.650;2024-03-06T05:58:45;10.17;;;8.40;;
4422;SDS011;2224;49.814;8.650;2024-03-06T06:01:12;11.80;;;8.93;;
4422;SDS011;2224;49.814;8.650;2024-03-06T06:03:43;10.70;;;9.00;;
4422;SDS011;2224;49.814;8.650;2024-03-06T06:06:09;11.43;;;9.30;;
4422;SDS011;2224;49.814;8.650;2024-03-06T06:08:34;13.43;;;10.13;;
4422;SDS011;2224;49.814;8.650;2024-03-06T06:11:00;16.63;;;11.53;;
4422;SDS011;2224;49.814;8.650;2024-03-06T06:13:25;12.40;;;9.90;;
4422;SDS011;2224;49.814;8.650;2024-03-06T06:15:50;15.80;;;11.70;;
4422;SDS011;2224;49.814;8.650;2024-03-06T06:18:16;14.37;;;10.80;;
4422;SDS011;2224;49.814;8.650;2024-03-06T06:20:41;13.43;;;10.60;;
4422;SDS011;2224;49.814;8.650;2024-03-06T06:23:07;13.97;;;10.40;;
4422;SDS011;2224;49.814;8.650;2024-03-06T06:25:33;11.87;;;10.13;;
4422;SDS011;2224;49.814;8.650;2024-03-06T06:27:58;12.57;;;10.33;;
4422;SDS011;2224;49.814;8.650;2024-03-06T06:30:24;12.30;;;10.63;;
4422;SDS011;2224;49.814;8.650;2024-03-06T06:32:49;15.97;;;11.30;;
4422;SDS011;2224;49.814;8.650;2024-03-06T06:35:15;12.63;;;10.00;;
4422;SDS011;2224;49.814;8.650;2024-03-06T06:37:40;18.43;;;11.33;;
4422;SDS011;2224;49.814;8.650;2024-03-06T06:40:07;17.90;;;11.60;;
4422;SDS011;2224;49.814;8.650;2024-03-06T06:42:33;18.80;;;12.10;;
4422;SDS011;2224;49.814;8.650;2024-03-06T06:44:59;15.17;;;12.20;;
4422;SDS011;2224;49.814;8.650;2024-03-06T06:47:25;17.83;;;12.90;;
4422;SDS011;2224;49.814;8.650;2024-03-06T06:49:51;18.90;;;12.93;;
4422;SDS011;2224;49.814;8.650;2024-03-06T06:52:16;22.53;;;14.00;;
4422;SDS011;2224;49.814;8.650;2024-03-06T06:54:42;24.60;;;15.27;;
4422;SDS011;2224;49.814;8.650;2024-03-06T06:57:07;18.40;;;15.07;;
4422;SDS011;2224;49.814;8.650;2024-03-06T06:59:33;21.37;;;15.00;;
4422;SDS011;2224;49.814;8.650;2024-03-06T07:01:59;22.90;;;14.80;;
4422;SDS011;2224;49.814;8.650;2024-03-06T07:04:25;22.70;;;14.47;;
4422;SDS011;2224;49.814;8.650;2024-03-06T07:06:50;16.17;;;13.73;;
4422;SDS011;2224;49.814;8.650;2024-03-06T07:09:16;20.80;;;15.07;;
4422;SDS011;2224;49.814;8.650;2024-03-06T07:11:41;19.67;;;14.80;;
4422;SDS011;2224;49.814;8.650;2024-03-06T07:14:07;18.77;;;15.40;;
4422;SDS011;2224;49.814;8.650;2024-03-06T07:16:33;17.90;;;14.50;;
4422;SDS011;2224;49.814;8.650;2024-03-06T07:18:58;21.10;;;15.77;;
4422;SDS011;2224;49.814;8.650;2024-03-06T07:21:24;16.10;;;12.80;;
4422;SDS011;2224;49.814;8.650;2024-03-06T07:23:50;14.47;;;12.37;;
4422;SDS011;2224;49.814;8.650;2024-03-06T07:26:15;15.23;;;13.63;;
4422;SDS011;2224;49.814;8.650;2024-03-06T07:28:40;17.00;;;12.60;;
4422;SDS011;2224;49.814;8.650;2024-03-06T07:31:06;15.93;;;13.00;;
4422;SDS011;2224;49.814;8.650;2024-03-06T07:33:31;18.17;;;13.30;;
4422;SDS011;2224;49.814;8.650;2024-03-06T07:35:59;13.40;;;11.97;;
4422;SDS011;2224;49.814;8.650;2024-03-06T07:38:24;16.53;;;12.27;;
4422;SDS011;2224;49.814;8.650;2024-03-06T07:40:49;16.43;;;12.30;;
4422;SDS011;2224;49.814;8.650;2024-03-06T07:43:14;16.70;;;12.50;;
4422;SDS011;2224;49.814;8.650;2024-03-06T07:45:40;15.07;;;11.70;;
4422;SDS011;2224;49.814;8.650;2024-03-06T07:48:06;13.43;;;10.33;;
4422;SDS011;2224;49.814;8.650;2024-03-06T07:50:31;12.33;;;11.03;;
4422;SDS011;2224;49.814;8.650;2024-03-06T07:52:56;11.83;;;10.63;;
4422;SDS011;2224;49.814;8.650;2024-03-06T07:55:22;11.53;;;9.80;;
4422;SDS011;2224;49.814;8.650;2024-03-06T07:57:47;12.70;;;10.00;;
4422;SDS011;2224;49.814;8.650;2024-03-06T08:00:13;12.70;;;10.10;;
4422;SDS011;2224;49.814;8.650;2024-03-06T08:02:44;14.30;;;10.27;;
4422;SDS011;2224;49.814;8.650;2024-03-06T08:05:15;14.70;;;11.27;;
4422;SDS011;2224;49.814;8.650;2024-03-06T08:07:40;16.50;;;12.07;;
4422;SDS011;2224;49.814;8.650;2024-03-06T08:10:07;12.93;;;11.40;;
4422;SDS011;2224;49.814;8.650;2024-03-06T08:12:34;16.53;;;11.97;;
4422;SDS011;2224;49.814;8.650;2024-03-06T08:14:59;12.20;;;10.30;;
4422;SDS011;2224;49.814;8.650;2024-03-06T08:17:26;15.13;;;10.63;;
4422;SDS011;2224;49.814;8.650;2024-03-06T08:19:52;14.37;;;10.70;;
4422;SDS011;2224;49.814;8.650;2024-03-06T08:22:17;13.60;;;10.83;;
4422;SDS011;2224;49.814;8.650;2024-03-06T08:24:42;12.10;;;10.70;;
4422;SDS011;2224;49.814;8.650;2024-03-06T08:27:07;17.37;;;13.50;;
4422;SDS011;2224;49.814;8.650;2024-03-06T08:29:33;11.53;;;10.33;;
4422;SDS011;2224;49.814;8.650;2024-03-06T08:31:58;12.97;;;10.80;;
4422;SDS011;2224;49.814;8.650;2024-03-06T08:34:24;11.43;;;9.50;;
4422;SDS011;2224;49.814;8.650;2024-03-06T08:36:50;13.20;;;11.30;;
4422;SDS011;2224;49.814;8.650;2024-03-06T08:39:18;12.67;;;10.70;;
4422;SDS011;2224;49.814;8.650;2024-03-06T08:41:44;13.40;;;10.40;;
4422;SDS011;2224;49.814;8.650;2024-03-06T08:44:09;13.23;;;11.60;;
4422;SDS011;2224;49.814;8.650;2024-03-06T08:46:34;18.43;;;11.47;;
4422;SDS011;2224;49.814;8.650;2024-03-06T08:49:00;14.90;;;12.77;;
4422;SDS011;2224;49.814;8.650;2024-03-06T08:51:26;17.17;;;13.33;;
4422;SDS011;2224;49.814;8.650;2024-03-06T08:53:52;22.60;;;12.20;;
4422;SDS011;2224;49.814;8.650;2024-03-06T08:56:17;14.77;;;12.50;;
4422;SDS011;2224;49.814;8.650;2024-03-06T08:58:43;17.40;;;13.97;;
4422;SDS011;2224;49.814;8.650;2024-03-06T09:01:08;20.63;;;15.27;;
4422;SDS011;2224;49.814;8.650;2024-03-06T09:03:34;21.93;;;16.70;;
4422;SDS011;2224;49.814;8.650;2024-03-06T09:06:00;21.20;;;16.53;;
4422;SDS011;2224;49.814;8.650;2024-03-06T09:08:27;24.60;;;17.77;;
4422;SDS011;2224;49.814;8.650;2024-03-06T09:10:53;22.50;;;17.00;;
4422;SDS011;2224;49.814;8.650;2024-03-06T09:13:18;27.10;;;18.57;;
4422;SDS011;2224;49.814;8.650;2024-03-06T09:15:43;24.40;;;17.70;;
4422;SDS011;2224;49.814;8.650;2024-03-06T09:18:09;34.23;;;19.37;;
4422;SDS011;2224;49.814;8.650;2024-03-06T09:20:34;32.67;;;19.77;;
4422;SDS011;2224;49.814;8.650;2024-03-06T09:23:00;27.03;;;20.00;;
4422;SDS011;2224;49.814;8.650;2024-03-06T09:25:25;31.63;;;20.10;;
4422;SDS011;2224;49.814;8.650;2024-03-06T09:27:50;25.60;;;19.90;;
4422;SDS011;2224;49.814;8.650;2024-03-06T09:30:16;25.87;;;19.50;;
4422;SDS011;2224;49.814;8.650;2024-03-06T09:32:42;29.97;;;21.23;;
4422;SDS011;2224;49.814;8.650;2024-03-06T09:35:09;22.80;;;17.63;;
4422;SDS011;2224;49.814;8.650;2024-03-06T09:37:34;26.40;;;19.10;;
4422;SDS011;2224;49.814;8.650;2024-03-06T09:39:59;28.40;;;19.27;;
4422;SDS011;2224;49.814;8.650;2024-03-06T09:42:25;28.57;;;19.37;;
4422;SDS011;2224;49.814;8.650;2024-03-06T09:44:50;27.00;;;18.30;;
4422;SDS011;2224;49.814;8.650;2024-03-06T09:47:15;24.87;;;18.60;;
4422;SDS011;2224;49.814;8.650;2024-03-06T09:49:48;26.10;;;17.53;;
4422;SDS011;2224;49.814;8.650;2024-03-06T09:52:14;25.90;;;18.20;;
4422;SDS011;2224;49.814;8.650;2024-03-06T09:54:39;26.50;;;18.97;;
4422;SDS011;2224;49.814;8.650;2024-03-06T09:57:05;27.67;;;19.37;;
4422;SDS011;2224;49.814;8.650;2024-03-06T09:59:31;27.00;;;18.40;;
4422;SDS011;2224;49.814;8.650;2024-03-06T10:01:57;27.77;;;18.50;;
4422;SDS011;2224;49.814;8.650;2024-03-06T10:04:23;23.87;;;19.00;;
4422;SDS011;2224;49.814;8.650;2024-03-06T10:06:52;26.07;;;19.57;;
4422;SDS011;2224;49.814;8.650;2024-03-06T10:09:20;23.93;;;17.47;;
4422;SDS011;2224;49.814;8.650;2024-03-06T10:11:45;25.20;;;17.90;;
4422;SDS011;2224;49.814;8.650;2024-03-06T10:14:11;27.00;;;18.93;;
4422;SDS011;2224;49.814;8.650;2024-03-06T10:16:37;28.37;;;19.00;;
4422;SDS011;2224;49.814;8.650;2024-03-06T10:19:24;26.20;;;18.87;;
4422;SDS011;2224;49.814;8.650;2024-03-06T10:21:49;26.97;;;17.73;;
4422;SDS011;2224;49.814;8.650;2024-03-06T10:24:17;22.90;;;16.90;;
4422;SDS011;2224;49.814;8.650;2024-03-06T10:26:43;22.70;;;19.00;;
4422;SDS011;2224;49.814;8.650;2024-03-06T10:29:09;23.80;;;17.67;;
4422;SDS011;2224;49.814;8.650;2024-03-06T10:31:34;23.60;;;18.00;;
4422;SDS011;2224;49.814;8.650;2024-03-06T10:33:59;27.83;;;19.03;;
4422;SDS011;2224;49.814;8.650;2024-03-06T10:36:31;24.53;;;16.47;;
4422;SDS011;2224;49.814;8.650;2024-03-06T10:38:57;23.37;;;18.20;;
4422;SDS011;2224;49.814;8.650;2024-03-06T10:41:25;25.33;;;18.83;;
4422;SDS011;2224;49.814;8.650;2024-03-06T10:43:53;24.43;;;18.00;;
4422;SDS011;2224;49.814;8.650;2024-03-06T10:46:19;25.97;;;17.97;;
4422;SDS011;2224;49.814;8.650;2024-03-06T10:48:45;24.10;;;17.40;;
4422;SDS011;2224;49.814;8.650;2024-03-06T10:51:14;23.90;;;17.83;;
4422;SDS011;2224;49.814;8.650;2024-03-06T10:53:40;23.70;;;17.00;;
4422;SDS011;2224;49.814;8.650;2024-03-06T10:56:05;25.23;;;16.70;;
4422;SDS011;2224;49.814;8.650;2024-03-06T10:58:34;29.20;;;20.37;;
4422;SDS011;2224;49.814;8.650;2024-03-06T11:01:00;28.03;;;17.90;;
4422;SDS011;2224;49.814;8.650;2024-03-06T11:03:26;24.50;;;17.60;;
4422;SDS011;2224;49.814;8.650;2024-03-06T11:05:52;21.40;;;15.83;;
4422;SDS011;2224;49.814;8.650;2024-03-06T11:08:17;23.97;;;14.60;;
4422;SDS011;2224;49.814;8.650;2024-03-06T11:10:43;21.27;;;14.30;;
4422;SDS011;2224;49.814;8.650;2024-03-06T11:13:20;21.07;;;13.70;;
4422;SDS011;2224;49.814;8.650;2024-03-06T11:15:47;19.37;;;14.40;;
4422;SDS011;2224;49.814;8.650;2024-03-06T11:23:28;25.00;;;13.97;;
4422;SDS011;2224;49.814;8.650;2024-03-06T11:25:57;22.17;;;14.37;;
4422;SDS011;2224;49.814;8.650;2024-03-06T11:28:32;22.00;;;15.10;;
4422;SDS011;2224;49.814;8.650;2024-03-06T11:33:40;19.00;;;14.17;;
4422;SDS011;2224;49.814;8.650;2024-03-06T11:41:33;18.53;;;12.33;;
4422;SDS011;2224;49.814;8.650;2024-03-06T11:44:18;18.10;;;12.20;;
4422;SDS011;2224;49.814;8.650;2024-03-06T11:49:18;19.90;;;12.40;;
4422;SDS011;2224;49.814;8.650;2024-03-06T11:51:46;15.87;;;11.83;;
4422;SDS011;2224;49.814;8.650;2024-03-06T11:54:14;17.57;;;13.10;;
4422;SDS011;2224;49.814;8.650;2024-03-06T11:56:39;16.27;;;11.30;;
4422;SDS011;2224;49.814;8.650;2024-03-06T11:59:05;19.77;;;12.10;;
4422;SDS011;2224;49.814;8.650;2024-03-06T12:01:34;16.57;;;11.70;;
4422;SDS011;2224;49.814;8.650;2024-03-06T12:04:01;16.40;;;11.43;;
4422;SDS011;2224;49.814;8.650;2024-03-06T12:06:27;16.73;;;10.50;;
4422;SDS011;2224;49.814;8.650;2024-03-06T12:08:53;14.87;;;10.37;;
4422;SDS011;2224;49.814;8.650;2024-03-06T12:11:19;18.30;;;12.30;;
4422;SDS011;2224;49.814;8.650;2024-03-06T12:13:45;17.30;;;11.70;;
4422;SDS011;2224;49.814;8.650;2024-03-06T12:16:13;16.77;;;11.53;;
4422;SDS011;2224;49.814;8.650;2024-03-06T12:18:38;15.83;;;11.67;;
4422;SDS011;2224;49.814;8.650;2024-03-06T12:21:04;17.87;;;10.87;;
4422;SDS011;2224;49.814;8.650;2024-03-06T12:23:29;18.60;;;13.20;;
4422;SDS011;2224;49.814;8.650;2024-03-06T12:26:04;18.47;;;11.70;;
4422;SDS011;2224;49.814;8.650;2024-03-06T12:28:36;16.07;;;11.33;;
4422;SDS011;2224;49.814;8.650;2024-03-06T12:31:02;20.13;;;13.83;;
4422;SDS011;2224;49.814;8.650;2024-03-06T12:33:28;17.17;;;11.33;;
4422;SDS011;2224;49.814;8.650;2024-03-06T12:36:03;18.57;;;13.00;;
4422;SDS011;2224;49.814;8.650;2024-03-06T12:38:30;16.50;;;12.13;;
4422;SDS011;2224;49.814;8.650;2024-03-06T12:40:55;18.83;;;12.73;;
4422;SDS011;2224;49.814;8.650;2024-03-06T12:43:21;15.17;;;11.07;;
4422;SDS011;2224;49.814;8.650;2024-03-06T12:45:46;15.97;;;11.53;;
4422;SDS011;2224;49.814;8.650;2024-03-06T12:48:11;16.83;;;11.70;;
4422;SDS011;2224;49.814;8.650;2024-03-06T12:50:37;17.50;;;12.07;;
4422;SDS011;2224;49.814;8.650;2024-03-06T12:53:03;16.37;;;11.27;;
4422;SDS011;2224;49.814;8.650;2024-03-06T12:55:29;18.23;;;12.97;;
4422;SDS011;2224;49.814;8.650;2024-03-06T12:57:56;18.97;;;12.67;;
4422;SDS011;2224;49.814;8.650;2024-03-06T13:00:22;19.63;;;12.90;;
4422;SDS011;2224;49.814;8.650;2024-03-06T13:02:47;21.77;;;13.23;;
4422;SDS011;2224;49.814;8.650;2024-03-06T13:05:13;23.10;;;12.87;;
4422;SDS011;2224;49.814;8.650;2024-03-06T13:07:38;18.97;;;12.60;;
4422;SDS011;2224;49.814;8.650;2024-03-06T13:10:04;17.50;;;12.40;;
4422;SDS011;2224;49.814;8.650;2024-03-06T13:12:30;18.43;;;12.97;;
4422;SDS011;2224;49.814;8.650;2024-03-06T13:14:55;18.43;;;11.93;;
4422;SDS011;2224;49.814;8.650;2024-03-06T13:17:21;19.03;;;12.50;;
4422;SDS011;2224;49.814;8.650;2024-03-06T13:19:46;21.23;;;13.67;;
4422;SDS011;2224;49.814;8.650;2024-03-06T13:22:12;20.90;;;13.90;;
4422;SDS011;2224;49.814;8.650;2024-03-06T13:24:37;21.50;;;14.50;;
4422;SDS011;2224;49.814;8.650;2024-03-06T13:27:03;23.07;;;14.93;;
4422;SDS011;2224;49.814;8.650;2024-03-06T13:29:28;24.43;;;15.23;;
4422;SDS011;2224;49.814;8.650;2024-03-06T13:31:54;20.90;;;15.10;;
4422;SDS011;2224;49.814;8.650;2024-03-06T13:34:20;23.40;;;14.57;;
4422;SDS011;2224;49.814;8.650;2024-03-06T13:36:46;24.40;;;14.73;;
4422;SDS011;2224;49.814;8.650;2024-03-06T13:39:11;22.73;;;14.90;;
4422;SDS011;2224;49.814;8.650;2024-03-06T13:41:37;21.87;;;15.90;;
4422;SDS011;2224;49.814;8.650;2024-03-06T13:44:02;22.70;;;16.03;;
4422;SDS011;2224;49.814;8.650;2024-03-06T13:46:27;23.20;;;16.03;;
4422;SDS011;2224;49.814;8.650;2024-03-06T13:48:52;22.47;;;15.10;;
4422;SDS011;2224;49.814;8.650;2024-03-06T13:51:18;25.37;;;15.73;;
4422;SDS011;2224;49.814;8.650;2024-03-06T13:53:43;20.90;;;15.30;;
4422;SDS011;2224;49.814;8.650;2024-03-06T13:56:08;22.07;;;14.93;;
4422;SDS011;2224;49.814;8.650;2024-03-06T13:58:34;22.17;;;15.10;;
4422;SDS011;2224;49.814;8.650;2024-03-06T14:00:59;23.37;;;15.40;;
4422;SDS011;2224;49.814;8.650;2024-03-06T14:03:24;21.03;;;15.10;;
4422;SDS011;2224;49.814;8.650;2024-03-06T14:05:50;23.07;;;15.27;;
4422;SDS011;2224;49.814;8.650;2024-03-06T14:08:16;25.27;;;15.70;;
4422;SDS011;2224;49.814;8.650;2024-03-06T14:10:42;25.57;;;15.30;;
4422;SDS011;2224;49.814;8.650;2024-03-06T14:13:07;23.87;;;15.23;;
4422;SDS011;2224;49.814;8.650;2024-03-06T14:15:33;22.63;;;14.73;;
4422;SDS011;2224;49.814;8.650;2024-03-06T14:17:59;24.80;;;14.70;;
4422;SDS011;2224;49.814;8.650;2024-03-06T14:20:26;21.83;;;14.23;;
4422;SDS011;2224;49.814;8.650;2024-03-06T14:22:52;22.20;;;14.50;;
4422;SDS011;2224;49.814;8.650;2024-03-06T14:25:17;25.90;;;14.97;;
4422;SDS011;2224;49.814;8.650;2024-03-06T14:27:42;21.87;;;15.17;;
4422;SDS011;2224;49.814;8.650;2024-03-06T14:30:08;22.53;;;16.13;;
4422;SDS011;2224;49.814;8.650;2024-03-06T14:32:35;21.90;;;14.77;;
4422;SDS011;2224;49.814;8.650;2024-03-06T14:35:00;19.70;;;13.67;;
4422;SDS011;2224;49.814;8.650;2024-03-06T14:37:26;23.20;;;14.63;;
4422;SDS011;2224;49.814;8.650;2024-03-06T14:39:52;22.70;;;14.97;;
4422;SDS011;2224;49.814;8.650;2024-03-06T14:42:17;20.93;;;13.73;;
4422;SDS011;2224;49.814;8.650;2024-03-06T14:44:43;22.37;;;14.83;;
4422;SDS011;2224;49.814;8.650;2024-03-06T14:47:09;21.73;;;14.10;;
4422;SDS011;2224;49.814;8.650;2024-03-06T14:49:34;21.77;;;14.40;;
4422;SDS011;2224;49.814;8.650;2024-03-06T14:51:59;21.77;;;14.97;;
4422;SDS011;2224;49.814;8.650;2024-03-06T14:54:25;22.03;;;15.23;;
4422;SDS011;2224;49.814;8.650;2024-03-06T14:56:51;20.40;;;13.83;;
4422;SDS011;2224;49.814;8.650;2024-03-06T14:59:17;18.17;;;13.17;;
4422;SDS011;2224;49.814;8.650;2024-03-06T15:01:43;17.50;;;12.80;;